sensor_id;sensor_type;location;lat;lon;timestamp;temperature;humidity
4079;DHT22;2054;47.858;11.156;2024-02-23T03:46:33;6.90;99.90
4079;DHT22;2054;47.858;11.156;2024-02-23T03:49:01;6.90;99.90
4079;DHT22;2054;47.858;11.156;2024-02-23T03:51:29;6.90;99.90
4079;DHT22;2054;47.858;11.156;2024-02-23T03:53:58;6.90;99.90
4079;DHT22;2054;47.858;11.156;2024-02-23T03:56:25;6.80;99.90
4079;DHT22;2054;47.858;11.156;2024-02-23T03:58:52;6.80;99.90
4079;DHT22;2054;47.858;11.156;2024-02-23T04:01:19;6.80;99.90
4079;DHT22;2054;47.858;11.156;2024-02-23T04:03:47;6.70;99.90
4079;DHT22;2054;47.858;11.156;2024-02-23T04:06:14;6.70;99.90
4079;DHT22;2054;47.858;11.156;2024-02-23T04:08:42;6.70;99.90
4079;DHT22;2054;47.858;11.156;2024-02-23T04:11:12;6.30;99.90
4079;DHT22;2054;47.858;11.156;2024-02-23T04:13:39;6.10;99.90
4079;DHT22;2054;47.858;11.156;2024-02-23T04:16:06;6.00;99.90
4079;DHT22;2054;47.858;11.156;2024-02-23T04:18:33;6.00;99.90
4079;DHT22;2054;47.858;11.156;2024-02-23T04:21:02;6.00;99.90
4079;DHT22;2054;47.858;11.156;2024-02-23T04:23:29;5.90;99.90
4079;DHT22;2054;47.858;11.156;2024-02-23T04:25:56;5.90;99.90
4079;DHT22;2054;47.858;11.156;2024-02-23T04:28:23;5.80;99.90
4079;DHT22;2054;47.858;11.156;2024-02-23T04:30:52;5.80;99.90
4079;DHT22;2054;47.858;11.156;2024-02-23T04:33:19;5.80;99.90
4079;DHT22;2054;47.858;11.156;2024-02-23T04:35:46;5.70;99.90
4079;DHT22;2054;47.858;11.156;2024-02-23T04:38:15;5.80;99.90
4079;DHT22;2054;47.858;11.156;2024-02-23T04:40:41;5.70;99.90
4079;DHT22;2054;47.858;11.156;2024-02-23T04:43:08;5.70;99.90
4079;DHT22;2054;47.858;11.156;2024-02-23T04:45:35;5.60;99.90
4079;DHT22;2054;47.858;11.156;2024-02-23T04:48:03;5.50;99.90
4079;DHT22;2054;47.858;11.156;2024-02-23T04:50:30;5.50;99.90
4079;DHT22;2054;47.858;11.156;2024-02-23T04:52:57;5.50;99.90
4079;DHT22;2054;47.858;11.156;2024-02-23T04:55:25;5.50;99.90
4079;DHT22;2054;47.858;11.156;2024-02-23T04:57:52;5.50;99.90
4079;DHT22;2054;47.858;11.156;2024-02-23T05:00:19;5.50;99.90
4079;DHT22;2054;47.858;11.156;2024-02-23T05:02:46;5.50;99.90
4079;DHT22;2054;47.858;11.156;2024-02-23T05:05:13;5.50;99.90
4079;DHT22;2054;47.858;11.156;2024-02-23T05:07:40;5.50;99.90
4079;DHT22;2054;47.858;11.156;2024-02-23T05:10:10;5.60;99.90
4079;DHT22;2054;47.858;11.156;2024-02-23T05:12:40;5.50;99.90
4079;DHT22;2054;47.858;11.156;2024-02-23T05:15:08;5.60;99.90
4079;DHT22;2054;47.858;11.156;2024-02-23T05:17:34;5.70;99.90
4079;DHT22;2054;47.858;11.156;2024-02-23T05:20:01;5.60;99.90
4079;DHT22;2054;47.858;11.156;2024-02-23T05:22:33;5.60;99.90
4079;DHT22;2054;47.858;11.156;2024-02-23T05:25:00;5.60;99.90
4079;DHT22;2054;47.858;11.156;2024-02-23T05:27:27;5.60;99.90
4079;DHT22;2054;47.858;11.156;2024-02-23T05:29:55;5.60;99.90
4079;DHT22;2054;47.858;11.156;2024-02-23T05:32:22;5.70;99.90
4079;DHT22;2054;47.858;11.156;2024-02-23T05:34:49;5.70;99.90
4079;DHT22;2054;47.858;11.156;2024-02-23T05:37:18;5.80;99.90
4079;DHT22;2054;47.858;11.156;2024-02-23T05:39:46;5.80;99.90
4079;DHT22;2054;47.858;11.156;2024-02-23T05:42:13;5.80;99.90
4079;DHT22;2054;47.858;11.156;2024-02-23T05:44:40;5.90;99.90
4079;DHT22;2054;47.858;11.156;2024-02-23T05:47:11;5.80;99.90
4079;DHT22;2054;47.858;11.156;2024-02-23T05:49:39;5.80;99.90
4079;DHT22;2054;47.858;11.156;2024-02-23T05:52:06;5.90;99.90
4079;DHT22;2054;47.858;11.156;2024-02-23T05:54:33;5.90;99.90
4079;DHT22;2054;47.858;11.156;2024-02-23T05:57:00;5.80;99.90
4079;DHT22;2054;47.858;11.156;2024-02-23T05:59:28;5.80;99.90
4079;DHT22;2054;47.858;11.156;2024-02-23T06:01:55;5.80;99.90
4079;DHT22;2054;47.858;11.156;2024-02-23T06:04:25;5.80;99.90
4079;DHT22;2054;47.858;11.156;2024-02-23T06:06:52;5.80;99.90
4079;DHT22;2054;47.858;11.156;2024-02-23T06:09:19;5.80;99.90
4079;DHT22;2054;47.858;11.156;2024-02-23T06:11:46;5.80;99.90
4079;DHT22;2054;47.858;11.156;2024-02-23T06:14:14;5.70;99.90
4079;DHT22;2054;47.858;11.156;2024-02-23T06:16:42;5.80;99.90
4079;DHT22;2054;47.858;11.156;2024-02-23T06:19:09;5.90;99.90
4079;DHT22;2054;47.858;11.156;2024-02-23T06:21:37;5.80;99.90
4079;DHT22;2054;47.858;11.156;2024-02-23T06:24:04;5.80;99.90
4079;DHT22;2054;47.858;11.156;2024-02-23T06:26:33;5.90;99.90
4079;DHT22;2054;47.858;11.156;2024-02-23T06:29:00;6.00;99.90
4079;DHT22;2054;47.858;11.156;2024-02-23T06:31:31;6.00;99.90
4079;DHT22;2054;47.858;11.156;2024-02-23T06:34:00;6.00;99.90
4079;DHT22;2054;47.858;11.156;2024-02-23T06:36:27;6.00;99.90
4079;DHT22;2054;47.858;11.156;2024-02-23T06:38:55;6.00;99.90
4079;DHT22;2054;47.858;11.156;2024-02-23T06:41:22;6.00;99.90
4079;DHT22;2054;47.858;11.156;2024-02-23T06:43:48;6.10;99.90
4079;DHT22;2054;47.858;11.156;2024-02-23T06:46:18;6.10;99.90
4079;DHT22;2054;47.858;11.156;2024-02-23T06:48:46;6.20;99.90
4079;DHT22;2054;47.858;11.156;2024-02-23T06:51:13;6.20;99.90
4079;DHT22;2054;47.858;11.156;2024-02-23T06:53:41;6.30;99.90
4079;DHT22;2054;47.858;11.156;2024-02-23T06:56:09;6.30;99.90
4079;DHT22;2054;47.858;11.156;2024-02-23T06:58:37;6.40;99.90
4079;DHT22;2054;47.858;11.156;2024-02-23T07:01:04;6.50;99.90
4079;DHT22;2054;47.858;11.156;2024-02-23T07:03:37;6.50;99.90
4079;DHT22;2054;47.858;11.156;2024-02-23T07:06:05;6.50;99.90
4079;DHT22;2054;47.858;11.156;2024-02-23T07:08:32;6.50;99.90
4079;DHT22;2054;47.858;11.156;2024-02-23T07:10:59;6.50;99.90
4079;DHT22;2054;47.858;11.156;2024-02-23T07:13:27;6.90;99.90
4079;DHT22;2054;47.858;11.156;2024-02-23T07:15:55;6.80;99.90
4079;DHT22;2054;47.858;11.156;2024-02-23T07:18:23;6.60;99.90
4079;DHT22;2054;47.858;11.156;2024-02-23T07:20:50;6.70;99.90
4079;DHT22;2054;47.858;11.156;2024-02-23T07:23:17;6.70;99.90
4079;DHT22;2054;47.858;11.156;2024-02-23T07:25:44;6.70;99.90
4079;DHT22;2054;47.858;11.156;2024-02-23T07:28:12;6.70;99.90
4079;DHT22;2054;47.858;11.156;2024-02-23T07:30:41;6.80;99.90
4079;DHT22;2054;47.858;11.156;2024-02-23T07:33:08;7.00;99.90
4079;DHT22;2054;47.858;11.156;2024-02-23T07:35:35;6.60;99.90
4079;DHT22;2054;47.858;11.156;2024-02-23T07:38:02;6.30;99.90
4079;DHT22;2054;47.858;11.156;2024-02-23T07:40:29;6.10;99.90
4079;DHT22;2054;47.858;11.156;2024-02-23T07:42:57;6.20;99.90
4079;DHT22;2054;47.858;11.156;2024-02-23T07:45:24;6.20;99.90
4079;DHT22;2054;47.858;11.156;2024-02-23T07:47:53;6.30;99.90
4079;DHT22;2054;47.858;11.156;2024-02-23T07:50:20;6.40;99.90
4079;DHT22;2054;47.858;11.156;2024-02-23T07:52:49;6.50;99.90
4079;DHT22;2054;47.858;11.156;2024-02-23T07:55:16;6.70;99.90
4079;DHT22;2054;47.858;11.156;2024-02-23T07:57:43;6.80;99.90
4079;DHT22;2054;47.858;11.156;2024-02-23T08:00:10;6.90;99.90
4079;DHT22;2054;47.858;11.156;2024-02-23T08:02:37;7.00;99.90
4079;DHT22;2054;47.858;11.156;2024-02-23T08:05:07;7.10;99.90
4079;DHT22;2054;47.858;11.156;2024-02-23T08:07:34;7.10;99.90
4079;DHT22;2054;47.858;11.156;2024-02-23T08:10:01;7.10;99.90
4079;DHT22;2054;47.858;11.156;2024-02-23T08:12:30;7.20;99.90
4079;DHT22;2054;47.858;11.156;2024-02-23T08:14:57;7.20;99.90
4079;DHT22;2054;47.858;11.156;2024-02-23T08:17:24;7.20;99.90
4079;DHT22;2054;47.858;11.156;2024-02-23T08:19:51;6.90;99.90
4079;DHT22;2054;47.858;11.156;2024-02-23T08:22:19;6.90;99.90
4079;DHT22;2054;47.858;11.156;2024-02-23T08:24:46;7.00;99.90
4079;DHT22;2054;47.858;11.156;2024-02-23T08:27:13;7.10;99.90
4079;DHT22;2054;47.858;11.156;2024-02-23T08:29:40;7.30;99.90
4079;DHT22;2054;47.858;11.156;2024-02-23T08:32:07;7.40;99.90
4079;DHT22;2054;47.858;11.156;2024-02-23T08:34:34;7.40;99.90
4079;DHT22;2054;47.858;11.156;2024-02-23T08:37:01;7.50;99.90
4079;DHT22;2054;47.858;11.156;2024-02-23T08:39:29;7.60;99.90
4079;DHT22;2054;47.858;11.156;2024-02-23T08:41:56;7.50;99.90
4079;DHT22;2054;47.858;11.156;2024-02-23T08:44:23;7.50;99.90
4079;DHT22;2054;47.858;11.156;2024-02-23T08:46:50;7.50;99.90
4079;DHT22;2054;47.858;11.156;2024-02-23T08:49:17;7.60;99.90
4079;DHT22;2054;47.858;11.156;2024-02-23T08:51:44;7.50;99.90
4079;DHT22;2054;47.858;11.156;2024-02-23T08:54:12;7.40;99.90
4079;DHT22;2054;47.858;11.156;2024-02-23T08:56:41;7.30;99.90
4079;DHT22;2054;47.858;11.156;2024-02-23T08:59:08;7.20;99.90
4079;DHT22;2054;47.858;11.156;2024-02-23T09:01:35;7.20;99.90
4079;DHT22;2054;47.858;11.156;2024-02-23T09:04:02;7.20;99.90
4079;DHT22;2054;47.858;11.156;2024-02-23T09:06:29;7.10;99.90
4079;DHT22;2054;47.858;11.156;2024-02-23T09:08:56;7.00;99.90
4079;DHT22;2054;47.858;11.156;2024-02-23T09:11:24;7.00;99.90
4079;DHT22;2054;47.858;11.156;2024-02-23T09:13:52;6.90;99.90
4079;DHT22;2054;47.858;11.156;2024-02-23T09:16:19;7.00;99.90
4079;DHT22;2054;47.858;11.156;2024-02-23T09:18:48;6.90;99.90
4079;DHT22;2054;47.858;11.156;2024-02-23T09:21:15;7.00;99.90
4079;DHT22;2054;47.858;11.156;2024-02-23T09:23:42;7.00;99.90
4079;DHT22;2054;47.858;11.156;2024-02-23T09:26:09;7.10;99.90
4079;DHT22;2054;47.858;11.156;2024-02-23T09:28:37;7.20;99.90
4079;DHT22;2054;47.858;11.156;2024-02-23T09:31:08;7.10;99.90
4079;DHT22;2054;47.858;11.156;2024-02-23T09:33:34;7.20;99.90
4079;DHT22;2054;47.858;11.156;2024-02-23T09:36:02;7.10;99.90
4079;DHT22;2054;47.858;11.156;2024-02-23T09:38:28;7.20;99.90
4079;DHT22;2054;47.858;11.156;2024-02-23T09:40:57;7.40;99.90
4079;DHT22;2054;47.858;11.156;2024-02-23T09:43:28;7.40;99.90
4079;DHT22;2054;47.858;11.156;2024-02-23T09:45:56;7.40;99.90
4079;DHT22;2054;47.858;11.156;2024-02-23T09:48:25;7.40;99.90
4079;DHT22;2054;47.858;11.156;2024-02-23T09:50:52;7.60;99.90
4079;DHT22;2054;47.858;11.156;2024-02-23T09:53:22;7.60;99.90
4079;DHT22;2054;47.858;11.156;2024-02-23T09:55:50;7.70;99.90
4079;DHT22;2054;47.858;11.156;2024-02-23T09:58:18;7.90;99.90
4079;DHT22;2054;47.858;11.156;2024-02-23T10:00:46;7.90;99.90
4079;DHT22;2054;47.858;11.156;2024-02-23T10:03:13;7.90;99.90
4079;DHT22;2054;47.858;11.156;2024-02-23T10:05:42;7.80;99.90
4079;DHT22;2054;47.858;11.156;2024-02-23T10:08:10;7.80;99.90
4079;DHT22;2054;47.858;11.156;2024-02-23T10:10:37;7.80;99.90
4079;DHT22;2054;47.858;11.156;2024-02-23T10:13:04;8.00;99.90
4079;DHT22;2054;47.858;11.156;2024-02-23T10:15:31;7.70;99.90
4079;DHT22;2054;47.858;11.156;2024-02-23T10:17:58;7.70;99.90
4079;DHT22;2054;47.858;11.156;2024-02-23T10:20:25;7.90;99.90
4079;DHT22;2054;47.858;11.156;2024-02-23T10:22:54;7.90;99.90
4079;DHT22;2054;47.858;11.156;2024-02-23T10:25:21;7.70;99.90
4079;DHT22;2054;47.858;11.156;2024-02-23T10:27:48;7.50;99.90
4079;DHT22;2054;47.858;11.156;2024-02-23T10:30:15;7.50;99.90
4079;DHT22;2054;47.858;11.156;2024-02-23T10:32:42;7.50;99.90
4079;DHT22;2054;47.858;11.156;2024-02-23T10:35:13;7.50;99.90
4079;DHT22;2054;47.858;11.156;2024-02-23T10:37:42;7.20;99.90
4079;DHT22;2054;47.858;11.156;2024-02-23T10:40:12;6.90;99.90
4079;DHT22;2054;47.858;11.156;2024-02-23T10:42:39;6.90;99.90
4079;DHT22;2054;47.858;11.156;2024-02-23T10:45:10;6.60;99.90
4079;DHT22;2054;47.858;11.156;2024-02-23T10:47:37;6.70;99.90
4079;DHT22;2054;47.858;11.156;2024-02-23T10:50:06;6.70;99.90
4079;DHT22;2054;47.858;11.156;2024-02-23T10:52:33;6.70;99.90
4079;DHT22;2054;47.858;11.156;2024-02-23T10:55:01;6.70;99.90
4079;DHT22;2054;47.858;11.156;2024-02-23T10:57:31;6.70;99.90
4079;DHT22;2054;47.858;11.156;2024-02-23T10:59:59;6.60;99.90
4079;DHT22;2054;47.858;11.156;2024-02-23T11:02:28;6.70;99.90
4079;DHT22;2054;47.858;11.156;2024-02-23T11:04:57;6.70;99.90
4079;DHT22;2054;47.858;11.156;2024-02-23T11:07:25;6.60;99.90
4079;DHT22;2054;47.858;11.156;2024-02-23T11:09:54;6.70;99.90
4079;DHT22;2054;47.858;11.156;2024-02-23T11:12:25;6.80;99.90
4079;DHT22;2054;47.858;11.156;2024-02-23T11:14:58;6.80;99.90
4079;DHT22;2054;47.858;11.156;2024-02-23T11:17:26;6.80;99.90
4079;DHT22;2054;47.858;11.156;2024-02-23T11:19:54;6.70;99.90
4079;DHT22;2054;47.858;11.156;2024-02-23T11:22:24;6.60;99.90
4079;DHT22;2054;47.858;11.156;2024-02-23T11:24:53;6.60;99.90
4079;DHT22;2054;47.858;11.156;2024-02-23T11:27:20;6.70;99.90
4079;DHT22;2054;47.858;11.156;2024-02-23T11:29:47;6.70;99.90
4079;DHT22;2054;47.858;11.156;2024-02-23T11:32:16;6.80;99.90
4079;DHT22;2054;47.858;11.156;2024-02-23T11:34:54;6.90;99.90
4079;DHT22;2054;47.858;11.156;2024-02-23T11:37:22;6.80;99.90
4079;DHT22;2054;47.858;11.156;2024-02-23T11:39:49;6.70;99.90
4079;DHT22;2054;47.858;11.156;2024-02-23T11:42:16;6.60;99.90
4079;DHT22;2054;47.858;11.156;2024-02-23T11:44:44;6.60;99.90
4079;DHT22;2054;47.858;11.156;2024-02-23T11:47:11;6.60;99.90
4079;DHT22;2054;47.858;11.156;2024-02-23T11:49:40;6.70;99.90
4079;DHT22;2054;47.858;11.156;2024-02-23T11:52:07;7.00;99.90
4079;DHT22;2054;47.858;11.156;2024-02-23T11:54:34;6.80;99.90
4079;DHT22;2054;47.858;11.156;2024-02-23T11:57:02;6.80;99.90
4079;DHT22;2054;47.858;11.156;2024-02-23T11:59:28;6.80;99.90
4079;DHT22;2054;47.858;11.156;2024-02-23T12:01:55;6.90;99.90
4079;DHT22;2054;47.858;11.156;2024-02-23T12:04:26;7.00;99.90
4079;DHT22;2054;47.858;11.156;2024-02-23T12:06:56;7.00;99.90
4079;DHT22;2054;47.858;11.156;2024-02-23T12:09:23;7.00;99.90
4079;DHT22;2054;47.858;11.156;2024-02-23T12:11:50;6.90;99.90
4079;DHT22;2054;47.858;11.156;2024-02-23T12:14:17;6.80;99.90
4079;DHT22;2054;47.858;11.156;2024-02-23T12:16:45;6.80;99.90
4079;DHT22;2054;47.858;11.156;2024-02-23T12:19:12;6.80;99.90
4079;DHT22;2054;47.858;11.156;2024-02-23T12:21:39;6.80;99.90
4079;DHT22;2054;47.858;11.156;2024-02-23T12:24:08;6.70;99.90
4079;DHT22;2054;47.858;11.156;2024-02-23T12:26:35;6.80;99.90
4079;DHT22;2054;47.858;11.156;2024-02-23T12:29:02;7.10;99.90
4079;DHT22;2054;47.858;11.156;2024-02-23T12:31:32;7.00;99.90
4079;DHT22;2054;47.858;11.156;2024-02-23T12:34:00;7.10;99.90
4079;DHT22;2054;47.858;11.156;2024-02-23T12:36:28;7.10;99.90
4079;DHT22;2054;47.858;11.156;2024-02-23T12:38:56;7.00;99.90
4079;DHT22;2054;47.858;11.156;2024-02-23T12:41:25;6.90;99.90
4079;DHT22;2054;47.858;11.156;2024-02-23T12:43:52;6.80;99.90
4079;DHT22;2054;47.858;11.156;2024-02-23T12:46:19;6.70;99.90
4079;DHT22;2054;47.858;11.156;2024-02-23T12:48:45;6.80;99.90
4079;DHT22;2054;47.858;11.156;2024-02-23T12:51:13;6.90;99.90
4079;DHT22;2054;47.858;11.156;2024-02-23T12:53:40;6.90;99.90
4079;DHT22;2054;47.858;11.156;2024-02-23T12:56:09;6.90;99.90
4079;DHT22;2054;47.858;11.156;2024-02-23T12:58:38;6.90;99.90
4079;DHT22;2054;47.858;11.156;2024-02-23T13:01:10;6.80;99.90
4079;DHT22;2054;47.858;11.156;2024-02-23T13:03:38;6.80;99.90
4079;DHT22;2054;47.858;11.156;2024-02-23T13:06:06;6.80;99.90
4079;DHT22;2054;47.858;11.156;2024-02-23T13:08:33;7.00;99.90
4079;DHT22;2054;47.858;11.156;2024-02-23T13:11:01;6.90;99.90
4079;DHT22;2054;47.858;11.156;2024-02-23T13:13:29;6.90;99.90
4079;DHT22;2054;47.858;11.156;2024-02-23T15:47:39;5.90;99.90
4079;DHT22;2054;47.858;11.156;2024-02-23T15:50:05;5.70;99.90
4079;DHT22;2054;47.858;11.156;2024-02-23T15:52:33;5.60;99.90
4079;DHT22;2054;47.858;11.156;2024-02-23T15:55:00;5.50;99.90
4079;DHT22;2054;47.858;11.156;2024-02-23T15:57:27;5.50;99.90
4079;DHT22;2054;47.858;11.156;2024-02-23T15:59:54;5.50;99.90
4079;DHT22;2054;47.858;11.156;2024-02-23T16:02:21;5.50;99.90
4079;DHT22;2054;47.858;11.156;2024-02-23T16:04:50;5.40;99.90
4079;DHT22;2054;47.858;11.156;2024-02-23T16:20:34;5.40;99.90
4079;DHT22;2054;47.858;11.156;2024-02-23T16:23:02;5.90;99.90
4079;DHT22;2054;47.858;11.156;2024-02-23T16:25:29;5.70;99.90
4079;DHT22;2054;47.858;11.156;2024-02-23T16:40:42;5.40;99.90
4079;DHT22;2054;47.858;11.156;2024-02-23T16:43:09;5.60;99.90
4079;DHT22;2054;47.858;11.156;2024-02-23T16:45:36;5.60;99.90
4079;DHT22;2054;47.858;11.156;2024-02-23T16:48:04;5.50;99.90
4079;DHT22;2054;47.858;11.156;2024-02-23T16:50:34;5.50;99.90
4079;DHT22;2054;47.858;11.156;2024-02-23T16:53:02;5.50;99.90
4079;DHT22;2054;47.858;11.156;2024-02-23T16:55:28;5.50;99.90
4079;DHT22;2054;47.858;11.156;2024-02-23T16:57:57;5.50;99.90
4079;DHT22;2054;47.858;11.156;2024-02-23T17:00:24;5.50;99.90
4079;DHT22;2054;47.858;11.156;2024-02-23T17:02:52;5.60;99.90
4079;DHT22;2054;47.858;11.156;2024-02-23T17:05:20;5.50;99.90
4079;DHT22;2054;47.858;11.156;2024-02-23T17:07:46;5.40;99.90
4079;DHT22;2054;47.858;11.156;2024-02-23T17:10:13;5.40;99.90
4079;DHT22;2054;47.858;11.156;2024-02-23T17:12:41;5.40;99.90
4079;DHT22;2054;47.858;11.156;2024-02-23T17:15:12;5.30;99.90
4079;DHT22;2054;47.858;11.156;2024-02-23T17:17:39;5.30;99.90
4079;DHT22;2054;47.858;11.156;2024-02-23T17:20:07;5.30;99.90
4079;DHT22;2054;47.858;11.156;2024-02-23T17:22:34;5.30;99.90
4079;DHT22;2054;47.858;11.156;2024-02-23T17:25:02;5.40;99.90
4079;DHT22;2054;47.858;11.156;2024-02-23T17:27:29;5.40;99.90
4079;DHT22;2054;47.858;11.156;2024-02-23T17:29:56;5.40;99.90
4079;DHT22;2054;47.858;11.156;2024-02-23T17:32:24;5.40;99.90
4079;DHT22;2054;47.858;11.156;2024-02-23T17:34:51;5.40;99.90
4079;DHT22;2054;47.858;11.156;2024-02-23T17:37:18;5.50;99.90
4079;DHT22;2054;47.858;11.156;2024-02-23T17:39:47;5.30;99.90
4079;DHT22;2054;47.858;11.156;2024-02-23T17:42:14;5.30;99.90
4079;DHT22;2054;47.858;11.156;2024-02-23T17:44:40;5.40;99.90
4079;DHT22;2054;47.858;11.156;2024-02-23T17:47:07;5.20;99.90
4079;DHT22;2054;47.858;11.156;2024-02-23T17:49:36;5.10;99.90
4079;DHT22;2054;47.858;11.156;2024-02-23T17:52:03;5.10;99.90
4079;DHT22;2054;47.858;11.156;2024-02-23T17:54:30;5.10;99.90
4079;DHT22;2054;47.858;11.156;2024-02-23T17:56:56;5.10;99.90
4079;DHT22;2054;47.858;11.156;2024-02-23T17:59:23;5.10;99.90
4079;DHT22;2054;47.858;11.156;2024-02-23T18:01:50;5.10;99.90
4079;DHT22;2054;47.858;11.156;2024-02-23T18:04:17;5.10;99.90
4079;DHT22;2054;47.858;11.156;2024-02-23T18:06:49;5.10;99.90
4079;DHT22;2054;47.858;11.156;2024-02-23T18:09:16;5.10;99.90
4079;DHT22;2054;47.858;11.156;2024-02-23T18:11:47;5.10;99.90
4079;DHT22;2054;47.858;11.156;2024-02-23T18:14:14;5.10;99.90
4079;DHT22;2054;47.858;11.156;2024-02-23T18:16:42;5.10;99.90
4079;DHT22;2054;47.858;11.156;2024-02-23T18:19:09;5.10;99.90
4079;DHT22;2054;47.858;11.156;2024-02-23T18:21:36;5.10;99.90
4079;DHT22;2054;47.858;11.156;2024-02-23T18:27:27;5.10;99.90
4079;DHT22;2054;47.858;11.156;2024-02-23T18:29:54;5.10;99.90
4079;DHT22;2054;47.858;11.156;2024-02-23T18:32:21;5.10;99.90
4079;DHT22;2054;47.858;11.156;2024-02-23T18:34:48;5.20;99.90
4079;DHT22;2054;47.858;11.156;2024-02-23T18:37:15;5.20;99.90
4079;DHT22;2054;47.858;11.156;2024-02-23T18:39:42;5.20;99.90
4079;DHT22;2054;47.858;11.156;2024-02-23T18:42:09;5.20;99.90
4079;DHT22;2054;47.858;11.156;2024-02-23T18:44:37;5.10;99.90
4079;DHT22;2054;47.858;11.156;2024-02-23T18:47:04;5.10;99.90
4079;DHT22;2054;47.858;11.156;2024-02-23T18:49:31;5.00;99.90
4079;DHT22;2054;47.858;11.156;2024-02-23T18:51:58;5.00;99.90
4079;DHT22;2054;47.858;11.156;2024-02-23T18:54:25;5.10;99.90
4079;DHT22;2054;47.858;11.156;2024-02-23T18:56:52;5.00;99.90
4079;DHT22;2054;47.858;11.156;2024-02-23T18:59:19;5.00;99.90
4079;DHT22;2054;47.858;11.156;2024-02-23T19:01:48;5.10;99.90
4079;DHT22;2054;47.858;11.156;2024-02-23T19:04:15;5.20;99.90
4079;DHT22;2054;47.858;11.156;2024-02-23T19:06:41;5.20;99.90
4079;DHT22;2054;47.858;11.156;2024-02-23T19:09:09;5.20;99.90
4079;DHT22;2054;47.858;11.156;2024-02-23T19:11:35;5.30;99.90
4079;DHT22;2054;47.858;11.156;2024-02-23T19:14:02;5.40;99.90
4079;DHT22;2054;47.858;11.156;2024-02-23T19:16:29;5.20;99.90
4079;DHT22;2054;47.858;11.156;2024-02-23T19:18:59;5.10;99.90
4079;DHT22;2054;47.858;11.156;2024-02-23T19:21:27;5.10;99.90
4079;DHT22;2054;47.858;11.156;2024-02-23T19:23:54;5.10;99.90
4079;DHT22;2054;47.858;11.156;2024-02-23T19:26:21;5.20;99.90
4079;DHT22;2054;47.858;11.156;2024-02-23T19:28:49;5.20;99.90
4079;DHT22;2054;47.858;11.156;2024-02-23T19:31:16;5.20;99.90
4079;DHT22;2054;47.858;11.156;2024-02-23T19:33:43;5.20;99.90
4079;DHT22;2054;47.858;11.156;2024-02-23T19:36:12;5.20;99.90
4079;DHT22;2054;47.858;11.156;2024-02-23T19:38:42;5.10;99.90
4079;DHT22;2054;47.858;11.156;2024-02-23T19:41:11;5.10;99.90
4079;DHT22;2054;47.858;11.156;2024-02-23T19:43:39;5.20;99.90
4079;DHT22;2054;47.858;11.156;2024-02-23T19:46:06;4.90;99.90
4079;DHT22;2054;47.858;11.156;2024-02-23T19:48:33;5.00;99.90
4079;DHT22;2054;47.858;11.156;2024-02-23T19:51:00;5.00;99.90
4079;DHT22;2054;47.858;11.156;2024-02-23T19:53:32;5.00;99.90
4079;DHT22;2054;47.858;11.156;2024-02-23T19:55:59;5.00;99.90
4079;DHT22;2054;47.858;11.156;2024-02-23T19:58:26;5.00;99.90
4079;DHT22;2054;47.858;11.156;2024-02-23T20:00:53;5.00;99.90
4079;DHT22;2054;47.858;11.156;2024-02-23T20:03:20;4.90;99.90
4079;DHT22;2054;47.858;11.156;2024-02-23T20:05:47;4.80;99.90
4079;DHT22;2054;47.858;11.156;2024-02-23T20:08:15;4.70;99.90
4079;DHT22;2054;47.858;11.156;2024-02-23T20:10:45;4.60;99.90
4079;DHT22;2054;47.858;11.156;2024-02-23T20:13:12;4.50;99.90
4079;DHT22;2054;47.858;11.156;2024-02-23T20:15:39;4.50;99.90
4079;DHT22;2054;47.858;11.156;2024-02-23T20:18:06;4.50;99.90
4079;DHT22;2054;47.858;11.156;2024-02-23T20:20:33;4.60;99.90
4079;DHT22;2054;47.858;11.156;2024-02-23T20:23:00;4.70;99.90
4079;DHT22;2054;47.858;11.156;2024-02-23T20:25:28;4.60;99.90
4079;DHT22;2054;47.858;11.156;2024-02-23T20:27:57;4.60;99.90
4079;DHT22;2054;47.858;11.156;2024-02-23T20:30:25;4.70;99.90
4079;DHT22;2054;47.858;11.156;2024-02-23T20:32:53;4.60;99.90
4079;DHT22;2054;47.858;11.156;2024-02-23T20:35:20;4.60;99.90
4079;DHT22;2054;47.858;11.156;2024-02-23T20:37:47;4.50;99.90
4079;DHT22;2054;47.858;11.156;2024-02-23T20:40:14;4.60;99.90
4079;DHT22;2054;47.858;11.156;2024-02-23T20:42:41;4.50;99.90
4079;DHT22;2054;47.858;11.156;2024-02-23T20:45:13;4.50;99.90
4079;DHT22;2054;47.858;11.156;2024-02-23T20:47:40;4.40;99.90
4079;DHT22;2054;47.858;11.156;2024-02-23T20:50:08;4.40;99.90
4079;DHT22;2054;47.858;11.156;2024-02-23T20:52:35;4.40;99.90
4079;DHT22;2054;47.858;11.156;2024-02-23T20:55:02;4.30;99.90
4079;DHT22;2054;47.858;11.156;2024-02-23T20:57:29;4.40;99.90
4079;DHT22;2054;47.858;11.156;2024-02-23T20:59:57;4.40;99.90
4079;DHT22;2054;47.858;11.156;2024-02-23T21:02:26;4.40;99.90
4079;DHT22;2054;47.858;11.156;2024-02-23T21:04:54;4.40;99.90
4079;DHT22;2054;47.858;11.156;2024-02-23T21:07:21;4.10;99.90
4079;DHT22;2054;47.858;11.156;2024-02-23T21:09:48;4.00;99.90
4079;DHT22;2054;47.858;11.156;2024-02-23T21:12:16;4.10;99.90
4079;DHT22;2054;47.858;11.156;2024-02-23T21:14:43;4.10;99.90
4079;DHT22;2054;47.858;11.156;2024-02-23T21:17:10;4.00;99.90
4079;DHT22;2054;47.858;11.156;2024-02-23T21:19:38;4.00;99.90
4079;DHT22;2054;47.858;11.156;2024-02-23T21:22:05;4.00;99.90
4079;DHT22;2054;47.858;11.156;2024-02-23T21:24:32;4.00;99.90
4079;DHT22;2054;47.858;11.156;2024-02-23T21:26:59;4.10;99.90
4079;DHT22;2054;47.858;11.156;2024-02-23T21:29:26;4.10;99.90
4079;DHT22;2054;47.858;11.156;2024-02-23T21:31:53;4.20;99.90
4079;DHT22;2054;47.858;11.156;2024-02-23T21:34:21;4.10;99.90
4079;DHT22;2054;47.858;11.156;2024-02-23T21:36:49;4.10;99.90
4079;DHT22;2054;47.858;11.156;2024-02-23T21:39:16;4.10;99.90
4079;DHT22;2054;47.858;11.156;2024-02-23T21:41:44;4.10;99.90
4079;DHT22;2054;47.858;11.156;2024-02-23T21:44:12;3.90;99.90
4079;DHT22;2054;47.858;11.156;2024-02-23T21:46:39;3.80;99.90
4079;DHT22;2054;47.858;11.156;2024-02-23T21:49:06;3.70;99.90
4079;DHT22;2054;47.858;11.156;2024-02-23T21:51:32;3.70;99.90
4079;DHT22;2054;47.858;11.156;2024-02-23T21:54:01;3.80;99.90
4079;DHT22;2054;47.858;11.156;2024-02-23T21:56:28;3.80;99.90
4079;DHT22;2054;47.858;11.156;2024-02-23T21:58:55;3.90;99.90
